CAP9 weather

Appleton Field
Strathmore, Alberta, Canada

Public forecast

Using degrees Celsius for public forecast. Weather courtesy of forecast.io.

METAR (pilot weather report)

Closest report is Calgary International Airport, 25.6 nm (47.4 km) WNW. Retrieved 2019/06/16 22:00 UTC (2 minutes ago):

CYYC 162200Z 04012KT 010V090 40SM FEW074 FEW300 22/04 A3001 RMK CU1CI1 CI TR SLP168 DENSITY ALT 5200FT

TAF (pilot weather forecast)

Closest forecast is Calgary International Airport, 25.6 nm (47.4 km) WNW. Retrieved 2019/06/16 21:42 UTC (20 minutes ago):

TAF CYYC 162038Z 1621/1718 01010KT P6SM SCT060 FM162300 01010KT P6SM SCT080 TEMPO 1623/1705 P6SM VCTS BKN080CB FM170500 VRB03KT P6SM FEW080 BECMG 1713/1715 16008KT RMK NXT FCST BY 170000Z